Main page
METAR-TAF:

METAR-TAF

Airports :

Cavern City Air Terminal

Carlsbad, New Mexico, United States

latitude: 32-20-15N, longitude: 104-15-48W, elevation: 3293 ft

Current weather observation

The report was made 57 minutes ago, at 03:53 UTC
Wind 8 mph from the South
Temperature 45°F
Humidity 76%
Pressure 30.14 in. Hg
Visibility: 10 miles
Clear sky

METAR: KCNM 160353Z AUTO 18007KT 10SM CLR 07/03 A3014 RMK AO2 SLP195 T00670028

Time: 21:50 (04:50 UTC)

Forecast

The report was made 5 hours and 20 minutes ago, at 23:30 UTC
Forecast valid from 16 at 00 UTC to 16 at 24 UTC
Wind 9 mph from the South/Southeast
Visibility: 6 miles
Few clouds at a height of 25000 ft

TAF: KCNM 152330Z 1600/1624 15008KT P6SM FEW250

Weather observations and forecasts of more than 4000 airports (METAR and TAF reports).

The available stations are represented by yellow and red dots on the map.

Hover mouse over dot to see the name of the station.

Then click to see weather observations and forecasts.

To change the map : click on the green buttons with a black cross to zoom in, on the green button with a dash to zoom out, or on the green arrows for adjacent maps.


METAR-TAF: